首页
METAR-TAF:

METAR-TAF

机场 :

哥伦比亚, 南卡罗来纳州, 美国

纬度: 33-58-15N, 经度: 080-59-40W, 海拔: 64米

当前天气观测

该预报发布于1小时和0分钟前的03:53 UTC
静风
温度 22°C
湿度 94%
气压 1018 hPa
能見度: 16.1公里
少量云层高于12000英尺

METAR: KCUB 250353Z AUTO 00000KT 10SM FEW120 22/21 A3007 RMK AO2 RAE20 SLP180 P0012 T02220211

时间: 00:53 (04:53 UTC)

预报

该预报发布于2小时和31分钟前的02:22 UTC
预报有效从25日的 02点(UTC)到 25日的 24点(UTC)
风速10节,风向多变
能見度: 6.4公里
多云层高于4500英尺, 积雨云.
小阵雨, 附近有雷暴
从 25日的 0400点(UTC)
风速3节,风向多变
能見度: 10公里
少量云层高于5000英尺
多云层高于20000英尺
短暂存在
从 25日的 08点(UTC)到 25日的 12点(UTC)
能見度: 6.4公里
多云层高于1200英尺
轻雾
从 25日的 1400点(UTC)
风速5节,风向
能見度: 10公里
散云层高于2500英尺
从 25日的 1900点(UTC)
风速8节,风向东转东南
能見度: 10公里
多云层高于4000英尺, 积雨云.
附近有雷暴

TAF: KCUB 250222Z 2502/2524 VRB10KT 4SM -SHRA VCTS BKN045CB FM250400 VRB03KT P6SM FEW050 BKN200 TEMPO 2508/2512 4SM BR BKN012 FM251400 10005KT P6SM SCT025 FM251900 11008KT P6SM VCTS BKN040CB

超过4000个机场的气象观测和天气预报(METAR&TAF报告)。

可查询的气象台以黄色和红色小点在地图上表示。

将鼠标移到小点上方,可查看气象台名称。

然后点击查看天气观测和预报。

如需切换地图:点击带黑十字的绿色按钮放大地图;点击带横线的绿色按钮缩小地图;或者点击绿色箭头查看邻近地区的地图。


METAR-TAF: